Beaufort MCAS - Merritt Field
KNBC : now visible

Airfield :











YOU CAN JOIN US ON...

 
LOGIN :

Register | Disclaimer

   EN    FR    IT 

 









Legend :    VFR   Marginal VFR   IFR   Intensive IFR   Very Intensive IFR
Visi :
Ceiling :
>= 8 km
>= 3000ft
5 to 8 km
1000 to 3000 ft
1500m to 5 km
500 to 1000 ft
800 to 1500m
200 to 500 ft
< 800m
< 200 ft
Symbols :   Thunderstorms  Fog  Heavy snow  Heavy precipitations  Wind > 20 kt






- Airport Elevation : 37 ft


KNBC - Beaufort MCAS - Merritt Field

CURRENT METAR :
  • 241656Z 18004KT 10SM CLR 23/04 A3018 RMK AO2 SLP219 T02280039

EXPIRED METARs :
  • 241556Z 13003KT 10SM CLR 20/07 A3019 RMK AO2 SLP223 T02000072
  • 241456Z 00000KT 10SM CLR 18/04 A3020 RMK AO2 SLP227 T01830044 50013

TAF TAF KNBC
Valid from the 24 at 15:00 until the 25 at 15:00 UTC


2415/2515 19008KT 9999 SKC QNH3012INS
BECMG 2503/2505 27005KT 9999 SKC QNH3009INS T22/2420Z T07/2512Z
KZJX FIR / North America



MET'MAP, your aeronautical weather chart ! - Copyright ORBIFLY December 2007 - Disclaimer

ORBIFLY MET'MAP TEAM :

Programming & Development : Alexandra Zaïnal
Concept & original design : Baudouin d'Aumeries
Assistance for programming : Marc-Olivier Méhu
Technical & hardware support : Manuel Goepfert

Contact : metmap@orbifly.com




SOURCES & CREDITS :

   NOAA       Earth
Advisory